createdAt,value
2023-05-07T00:01:58.370Z,12.25
2023-05-07T00:04:36.967Z,12.32
2023-05-07T00:07:09.126Z,12.15
2023-05-07T00:09:41.555Z,12.10
2023-05-07T00:12:13.611Z,11.93
2023-05-07T00:14:46.799Z,12.04
2023-05-07T00:17:19.119Z,12.03
2023-05-07T00:19:51.328Z,11.99
2023-05-07T00:22:23.569Z,11.98
2023-05-07T00:24:55.794Z,12.05
2023-05-07T00:27:27.861Z,12.15
2023-05-07T00:29:59.962Z,12.07
2023-05-07T00:32:32.127Z,12.03
2023-05-07T00:35:06.041Z,12.06
2023-05-07T00:37:38.220Z,12.04
2023-05-07T00:40:11.079Z,12.07
2023-05-07T00:42:48.360Z,12.09
2023-05-07T00:45:20.494Z,12.14
2023-05-07T00:47:52.817Z,11.99
2023-05-07T00:50:25.500Z,12.06
2023-05-07T00:52:58.339Z,12.01
2023-05-07T00:55:30.730Z,11.99
2023-05-07T00:58:02.888Z,11.86
2023-05-07T01:00:35.805Z,12.01
2023-05-07T01:03:08.035Z,11.94
2023-05-07T01:05:42.299Z,11.87
2023-05-07T01:08:16.985Z,11.86
2023-05-07T01:10:49.577Z,11.87
2023-05-07T01:13:22.323Z,11.88
2023-05-07T01:15:54.810Z,11.91
2023-05-07T01:18:27.808Z,11.88
2023-05-07T01:21:01.385Z,11.89
2023-05-07T01:23:35.034Z,11.90
2023-05-07T01:26:07.517Z,11.90
2023-05-07T01:28:40.335Z,11.81
2023-05-07T01:31:15.435Z,11.80
2023-05-07T01:33:51.357Z,11.78
2023-05-07T01:36:27.220Z,11.81
2023-05-07T01:39:00.428Z,11.60
2023-05-07T01:41:32.858Z,11.42
2023-05-07T01:44:05.959Z,11.40
2023-05-07T01:46:38.219Z,11.42
2023-05-07T01:49:11.451Z,11.47
2023-05-07T01:51:44.732Z,11.46
2023-05-07T01:54:17.735Z,11.49
2023-05-07T01:56:50.194Z,11.51
2023-05-07T01:59:22.262Z,11.50
2023-05-07T02:01:54.547Z,11.50
2023-05-07T02:04:26.704Z,11.60
2023-05-07T02:06:58.847Z,11.51
2023-05-07T02:09:31.248Z,11.51
2023-05-07T02:12:03.467Z,11.53
2023-05-07T02:14:35.686Z,11.47
2023-05-07T02:17:09.200Z,11.52
2023-05-07T02:19:41.287Z,11.43
2023-05-07T02:22:13.465Z,11.40
2023-05-07T02:24:45.804Z,11.35
2023-05-07T02:27:17.943Z,11.31
2023-05-07T02:29:50.098Z,11.30
2023-05-07T02:32:23.323Z,11.25
2023-05-07T02:34:56.523Z,11.20
2023-05-07T02:37:28.606Z,11.23
2023-05-07T02:40:00.720Z,11.26
2023-05-07T02:42:32.875Z,11.27
2023-05-07T02:45:06.082Z,11.22
2023-05-07T02:47:38.281Z,11.17
2023-05-07T02:50:11.114Z,11.11
2023-05-07T02:52:43.588Z,11.14
2023-05-07T02:55:15.992Z,11.15
2023-05-07T02:57:48.320Z,11.22
2023-05-07T03:00:21.475Z,11.31
2023-05-07T03:02:53.683Z,11.31
2023-05-07T03:05:26.889Z,11.34
2023-05-07T03:07:59.047Z,11.23
2023-05-07T03:10:31.871Z,11.20
2023-05-07T03:13:04.834Z,11.16
2023-05-07T03:15:37.033Z,11.15
2023-05-07T03:18:09.390Z,11.20
2023-05-07T03:20:41.744Z,11.28
2023-05-07T03:23:14.019Z,11.27
2023-05-07T03:25:46.263Z,11.27
2023-05-07T03:28:18.464Z,11.29
2023-05-07T03:30:50.715Z,11.25
2023-05-07T03:33:23.304Z,11.14
2023-05-07T03:35:55.862Z,11.17
2023-05-07T03:38:28.019Z,11.23
2023-05-07T03:41:00.130Z,11.25
2023-05-07T03:43:32.308Z,11.26
2023-05-07T03:46:04.457Z,11.14
2023-05-07T03:48:36.576Z,11.14
2023-05-07T03:51:08.676Z,11.19
2023-05-07T03:53:40.742Z,11.16
2023-05-07T03:56:12.943Z,11.20
2023-05-07T03:58:45.971Z,11.23
2023-05-07T04:01:18.199Z,11.17
2023-05-07T04:03:50.408Z,11.11
2023-05-07T04:06:22.736Z,11.16
2023-05-07T04:08:54.912Z,11.29
2023-05-07T04:11:27.863Z,11.28
2023-05-07T04:14:00.081Z,11.23
2023-05-07T04:16:32.365Z,11.28
2023-05-07T04:19:04.509Z,11.31
2023-05-07T04:21:40.148Z,11.29
2023-05-07T04:24:12.210Z,11.35
2023-05-07T04:26:44.376Z,11.29
2023-05-07T04:29:16.524Z,11.31
2023-05-07T04:31:48.748Z,11.30
2023-05-07T04:34:22.368Z,11.47
2023-05-07T04:36:54.546Z,11.28
2023-05-07T04:39:26.640Z,11.23
2023-05-07T04:41:58.738Z,11.30
2023-05-07T04:44:32.389Z,11.31
2023-05-07T04:47:04.642Z,11.33
2023-05-07T04:49:38.134Z,11.29
2023-05-07T04:52:10.312Z,11.15
2023-05-07T04:54:42.461Z,11.22
2023-05-07T04:57:15.254Z,11.22
2023-05-07T04:59:47.382Z,11.26
2023-05-07T05:02:20.833Z,11.25
2023-05-07T05:13:18.068Z,11.34
2023-05-07T05:36:29.959Z,11.39
2023-05-07T07:53:10.062Z,12.72
2023-05-07T09:01:46.136Z,14.02
2023-05-07T09:44:17.701Z,14.78
2023-05-07T09:47:58.410Z,15.02
2023-05-07T10:22:08.316Z,16.15
2023-05-07T10:29:42.799Z,16.39
2023-05-07T10:48:44.879Z,16.22
2023-05-07T11:07:57.269Z,19.08
2023-05-07T11:51:41.216Z,18.65
2023-05-07T12:09:45.071Z,17.39
2023-05-07T12:28:44.566Z,17.12
2023-05-07T12:31:27.540Z,16.96
2023-05-07T12:35:27.947Z,17.26
2023-05-07T12:42:49.406Z,17.87
2023-05-07T12:45:24.316Z,17.83
2023-05-07T12:48:46.258Z,17.81
2023-05-07T12:51:41.126Z,17.76
2023-05-07T12:58:08.911Z,17.79
2023-05-07T13:04:16.350Z,18.31
2023-05-07T13:06:49.231Z,18.40
2023-05-07T13:12:55.679Z,18.19
2023-05-07T13:16:22.520Z,18.55
2023-05-07T13:19:13.837Z,19.08
2023-05-07T13:22:01.507Z,19.56
2023-05-07T13:28:06.756Z,20.67
2023-05-07T13:38:44.829Z,22.02
2023-05-07T13:42:14.398Z,21.84
2023-05-07T13:45:23.947Z,22.12
2023-05-07T13:52:33.385Z,23.61
2023-05-07T14:03:22.237Z,24.29
2023-05-07T14:06:14.450Z,24.52
2023-05-07T14:09:25.262Z,23.62
2023-05-07T14:15:19.767Z,22.00
2023-05-07T14:17:52.867Z,21.63
2023-05-07T14:20:25.376Z,21.10
2023-05-07T14:22:59.611Z,20.72
2023-05-07T14:25:41.044Z,20.66
2023-05-07T14:28:30.779Z,21.21
2023-05-07T14:31:06.006Z,21.73
2023-05-07T14:33:42.476Z,21.67
2023-05-07T14:36:17.035Z,21.75
2023-05-07T14:38:52.478Z,21.45
2023-05-07T14:41:32.646Z,21.18
2023-05-07T14:44:13.592Z,20.79
2023-05-07T14:47:02.256Z,20.60
2023-05-07T14:49:41.377Z,20.35
2023-05-07T14:52:24.841Z,19.70
2023-05-07T14:55:00.923Z,19.60
2023-05-07T14:57:38.831Z,19.46
2023-05-07T15:00:17.691Z,19.24
2023-05-07T15:02:50.931Z,19.14
2023-05-07T15:05:33.617Z,19.09
2023-05-07T15:08:19.099Z,18.96
2023-05-07T15:11:26.319Z,19.08
2023-05-07T15:14:06.970Z,18.90
2023-05-07T15:16:44.703Z,18.90
2023-05-07T15:19:43.114Z,18.76
2023-05-07T15:22:34.661Z,18.72
2023-05-07T15:25:13.962Z,18.83
2023-05-07T15:27:52.748Z,19.07
2023-05-07T15:30:28.123Z,19.14
2023-05-07T15:33:05.777Z,19.16
2023-05-07T15:35:43.794Z,19.05
2023-05-07T16:12:48.358Z,18.31
2023-05-07T16:15:20.872Z,18.32
2023-05-07T16:23:02.555Z,18.10
2023-05-07T16:47:17.437Z,17.15
2023-05-07T16:50:19.409Z,17.21
2023-05-07T16:53:51.560Z,17.20
2023-05-07T16:58:02.976Z,17.41
2023-05-07T17:03:29.931Z,17.18
2023-05-07T17:06:07.859Z,17.14
2023-05-07T17:08:46.473Z,17.02
2023-05-07T17:12:20.773Z,16.86
2023-05-07T17:20:03.140Z,16.80
2023-05-07T17:30:31.203Z,17.06
2023-05-07T17:37:26.486Z,17.16
2023-05-07T17:39:58.762Z,17.16
2023-05-07T17:42:32.971Z,17.19
2023-05-07T17:45:06.681Z,17.01
2023-05-07T17:47:38.890Z,16.93
2023-05-07T17:50:12.472Z,16.91
2023-05-07T17:52:44.909Z,16.80
2023-05-07T17:55:42.058Z,16.85
2023-05-07T17:58:41.514Z,16.84
2023-05-07T18:01:58.901Z,16.69
2023-05-07T18:09:28.367Z,16.44
2023-05-07T18:12:01.507Z,16.47
2023-05-07T18:14:39.918Z,16.38
2023-05-07T18:17:22.932Z,16.35
2023-05-07T18:19:55.508Z,16.39
2023-05-07T18:22:28.106Z,16.26
2023-05-07T18:25:00.501Z,16.17
2023-05-07T18:27:36.414Z,16.18
2023-05-07T18:30:09.846Z,16.18
2023-05-07T18:32:48.376Z,16.14
2023-05-07T18:35:20.664Z,16.12
2023-05-07T18:37:54.103Z,16.09
2023-05-07T18:40:27.422Z,16.06
2023-05-07T18:43:07.072Z,15.96
2023-05-07T18:45:39.852Z,15.87
2023-05-07T18:48:17.393Z,15.77
2023-05-07T18:50:58.794Z,15.69
2023-05-07T18:53:33.738Z,15.58
2023-05-07T18:56:07.859Z,15.55
2023-05-07T18:58:40.188Z,15.52
2023-05-07T19:01:12.629Z,15.50
2023-05-07T19:03:44.846Z,15.42
2023-05-07T19:06:17.361Z,15.39
2023-05-07T19:08:52.626Z,15.38
2023-05-07T19:11:30.842Z,15.35
2023-05-07T19:14:04.966Z,15.29
2023-05-07T19:16:37.668Z,15.19
2023-05-07T19:19:10.478Z,15.11
2023-05-07T19:21:45.259Z,15.08
2023-05-07T19:24:20.628Z,15.05
2023-05-07T19:26:56.255Z,15.03
2023-05-07T19:29:28.822Z,14.85
2023-05-07T19:32:02.070Z,14.80
2023-05-07T19:34:34.443Z,14.86
2023-05-07T19:37:06.906Z,14.77
2023-05-07T19:39:39.283Z,14.87
2023-05-07T19:42:11.981Z,14.78
2023-05-07T19:44:44.663Z,14.69
2023-05-07T19:47:19.800Z,14.52
2023-05-07T19:49:56.726Z,14.46
2023-05-07T19:52:28.929Z,14.47
2023-05-07T19:55:07.267Z,14.47
2023-05-07T19:57:39.590Z,14.47
2023-05-07T20:00:13.308Z,14.43
2023-05-07T20:02:46.978Z,14.49
2023-05-07T20:05:19.516Z,14.35
2023-05-07T20:07:52.195Z,14.29
2023-05-07T20:10:24.721Z,14.20
2023-05-07T20:12:57.356Z,14.14
2023-05-07T20:15:29.791Z,14.08
2023-05-07T20:18:02.121Z,14.09
2023-05-07T20:20:34.690Z,14.05
2023-05-07T20:23:06.971Z,14.08
2023-05-07T20:25:45.086Z,14.07
2023-05-07T20:28:17.608Z,14.03
2023-05-07T20:30:50.154Z,13.96
2023-05-07T20:33:22.563Z,13.97
2023-05-07T20:35:55.340Z,13.93
2023-05-07T20:38:34.123Z,13.89
2023-05-07T20:41:12.988Z,13.79
2023-05-07T20:43:45.282Z,13.84
2023-05-07T20:46:17.575Z,13.86
2023-05-07T20:48:50.257Z,13.76
2023-05-07T20:51:22.763Z,13.72
2023-05-07T20:53:55.338Z,13.73
2023-05-07T20:56:30.915Z,13.69
2023-05-07T20:59:03.219Z,13.60
2023-05-07T21:01:38.337Z,13.64
2023-05-07T21:04:10.883Z,13.56
2023-05-07T21:06:43.959Z,13.58
2023-05-07T21:09:16.315Z,13.62
2023-05-07T21:11:48.912Z,13.62
2023-05-07T21:14:23.920Z,13.59
2023-05-07T21:16:56.516Z,13.49
2023-05-07T21:19:29.061Z,13.51
2023-05-07T21:22:01.571Z,13.45
2023-05-07T21:24:36.893Z,13.50
2023-05-07T21:27:09.408Z,13.52
2023-05-07T21:29:41.891Z,13.41
2023-05-07T21:32:14.397Z,13.36
2023-05-07T21:34:50.734Z,13.40
2023-05-07T21:37:23.541Z,13.37
2023-05-07T21:39:55.855Z,13.23
2023-05-07T21:42:31.903Z,13.20
2023-05-07T21:45:07.654Z,13.21
2023-05-07T21:47:42.959Z,13.26
2023-05-07T21:50:15.697Z,13.16
2023-05-07T21:52:51.986Z,13.15
2023-05-07T21:55:24.305Z,13.13
2023-05-07T21:58:04.893Z,13.12
2023-05-07T22:00:38.513Z,13.01
2023-05-07T22:03:11.194Z,13.00
2023-05-07T22:05:43.610Z,13.02
2023-05-07T22:08:16.155Z,13.00
2023-05-07T22:10:48.499Z,12.94
2023-05-07T22:13:24.031Z,13.01
2023-05-07T22:15:59.222Z,12.94
2023-05-07T22:18:31.658Z,12.87
2023-05-07T22:21:04.102Z,12.82
2023-05-07T22:23:36.408Z,12.84
2023-05-07T22:26:13.656Z,12.86
2023-05-07T22:28:46.185Z,12.77
2023-05-07T22:31:18.481Z,12.85
2023-05-07T22:33:50.797Z,12.77
2023-05-07T22:36:23.008Z,12.79
2023-05-07T22:38:55.521Z,12.74
2023-05-07T22:41:28.203Z,12.67
2023-05-07T22:44:00.959Z,12.73
2023-05-07T22:46:36.471Z,12.65
2023-05-07T22:49:11.863Z,12.61
2023-05-07T22:51:44.309Z,12.58
2023-05-07T22:54:16.823Z,12.59
2023-05-07T22:56:49.346Z,12.62
2023-05-07T22:59:22.035Z,12.61
2023-05-07T23:01:58.034Z,12.51
2023-05-07T23:04:30.307Z,12.53
2023-05-07T23:07:02.663Z,12.49
2023-05-07T23:09:45.903Z,12.45
2023-05-07T23:16:08.335Z,12.43
2023-05-07T23:23:14.390Z,12.35
2023-05-07T23:30:01.272Z,12.37
2023-05-07T23:41:47.917Z,12.09
